Time;durP1;ratioP1;P1;durP2;ratioP2;P2;SDS_P1;SDS_P2;PMS_P1;PMS_P2;Temp;Humidity;BMP_temperature;BMP_pressure;BME280_temperature;BME280_humidity;BME280_pressure;Samples;Min_cycle;Max_cycle;Signal;HPM_P1;HPM_P2
2021/04/05 00:01:12;;;;;;;7.50;4.90;;;4.50;41.00;;;;;;5091254;28;37382;-90
2021/04/05 00:03:39;;;;;;;4.37;3.73;;;4.50;40.90;;;;;;5058222;28;37998;-91
2021/04/05 00:06:06;;;;;;;8.63;4.87;;;4.50;41.20;;;;;;5055908;28;37983;-91
2021/04/05 00:08:33;;;;;;;7.20;4.70;;;4.50;40.40;;;;;;5069392;28;38095;-90
2021/04/05 00:11:01;;;;;;;7.07;5.00;;;4.40;40.30;;;;;;5072483;28;37640;-89
2021/04/05 00:13:31;;;;;;;7.50;5.63;;;4.40;40.60;;;;;;5079214;28;39824;-90
2021/04/05 00:15:59;;;;;;;7.70;5.60;;;4.30;40.80;;;;;;5072255;28;39025;-90
2021/04/05 00:18:28;;;;;;;7.00;5.27;;;4.30;40.80;;;;;;5054965;28;36939;-90
2021/04/05 00:20:57;;;;;;;8.43;5.10;;;4.30;41.20;;;;;;5075132;28;37802;-89
2021/04/05 00:23:24;;;;;;;10.23;6.87;;;4.30;40.80;;;;;;5076768;28;39767;-90
2021/04/05 00:25:52;;;;;;;7.43;5.10;;;4.40;40.80;;;;;;5046607;28;37834;-89
2021/04/05 00:28:19;;;;;;;6.73;5.40;;;4.30;40.80;;;;;;5036726;28;37121;-90
2021/04/05 00:30:48;;;;;;;7.30;5.30;;;4.30;40.80;;;;;;5055043;28;36933;-89
2021/04/05 00:33:15;;;;;;;7.40;5.60;;;4.30;40.80;;;;;;5042377;28;38281;-90
2021/04/05 00:35:42;;;;;;;9.07;5.50;;;4.30;40.80;;;;;;5040866;28;37819;-89
2021/04/05 00:38:11;;;;;;;6.43;5.20;;;4.30;40.90;;;;;;5033548;28;36726;-89
2021/04/05 00:40:40;;;;;;;9.80;5.60;;;4.30;40.80;;;;;;5058234;28;37257;-90
2021/04/05 00:43:09;;;;;;;11.90;6.00;;;4.30;40.60;;;;;;5039577;28;38535;-91
2021/04/05 00:45:37;;;;;;;8.27;5.43;;;4.30;40.50;;;;;;5037753;28;38192;-91
2021/04/05 00:48:07;;;;;;;8.20;5.70;;;4.20;40.40;;;;;;5039291;28;37846;-90
2021/04/05 00:50:44;;;;;;;10.33;5.80;;;4.20;40.50;;;;;;5047033;28;36023;-90
2021/04/05 00:53:14;;;;;;;10.03;6.47;;;4.20;40.80;;;;;;5038766;28;38418;-89
2021/04/05 00:55:43;;;;;;;8.77;6.33;;;4.10;40.80;;;;;;5037951;28;38042;-91
2021/04/05 00:58:10;;;;;;;9.70;6.40;;;4.00;41.10;;;;;;5060991;28;38331;-91
2021/04/05 01:00:41;;;;;;;8.97;6.13;;;3.90;41.10;;;;;;5056937;28;37035;-91
2021/04/05 01:03:11;;;;;;;9.23;6.37;;;3.90;41.40;;;;;;5060953;28;40322;-90
2021/04/05 01:05:40;;;;;;;8.30;6.27;;;3.80;41.80;;;;;;5052986;28;37928;-89
2021/04/05 01:08:09;;;;;;;10.63;6.37;;;3.70;42.20;;;;;;5056603;28;37900;-89
2021/04/05 01:10:39;;;;;;;6.77;5.97;;;3.60;42.30;;;;;;5050049;28;36126;-91
2021/04/05 01:13:07;;;;;;;8.00;6.67;;;3.50;42.30;;;;;;5064550;28;39415;-90
2021/04/05 01:15:34;;;;;;;9.47;7.03;;;3.50;42.60;;;;;;5044137;28;37947;-91
2021/04/05 01:18:01;;;;;;;9.53;7.13;;;3.50;42.80;;;;;;5058534;28;38255;-90
2021/04/05 01:20:29;;;;;;;11.50;7.10;;;3.60;42.80;;;;;;5048371;28;35884;-91
2021/04/05 01:22:58;;;;;;;11.20;7.00;;;3.50;42.90;;;;;;5049088;28;38533;-91
2021/04/05 01:25:26;;;;;;;11.30;6.80;;;3.50;43.00;;;;;;5055431;28;38733;-90
2021/04/05 01:27:53;;;;;;;9.00;7.13;;;3.50;43.30;;;;;;5076468;28;38340;-89
2021/04/05 01:30:31;;;;;;;9.77;7.63;;;3.50;43.40;;;;;;5074070;28;35628;-90
2021/04/05 01:33:02;;;;;;;11.00;7.70;;;3.50;43.40;;;;;;5058112;28;39765;-90
2021/04/05 01:35:30;;;;;;;15.77;7.73;;;3.40;43.30;;;;;;5075900;28;39240;-91
2021/04/05 01:37:58;;;;;;;10.20;7.83;;;3.40;43.50;;;;;;5047951;28;36963;-91
2021/04/05 01:40:27;;;;;;;10.00;8.00;;;3.30;43.50;;;;;;5063977;28;36809;-91
2021/04/05 01:42:54;;;;;;;8.03;7.23;;;3.30;43.50;;;;;;5062353;28;38313;-90
2021/04/05 01:45:22;;;;;;;10.20;7.60;;;3.30;43.60;;;;;;5060621;28;38075;-91
2021/04/05 01:47:49;;;;;;;13.27;7.40;;;3.20;43.90;;;;;;5062058;28;38052;-90
2021/04/05 01:50:19;;;;;;;9.57;7.50;;;3.20;44.10;;;;;;5077370;28;36726;-90
2021/04/05 01:52:46;;;;;;;11.93;7.90;;;3.20;44.10;;;;;;5055696;28;39801;-91
2021/04/05 01:55:15;;;;;;;12.17;8.00;;;3.20;44.10;;;;;;5073377;28;39340;-90
2021/04/05 01:57:43;;;;;;;10.97;8.13;;;3.20;44.10;;;;;;5073400;28;36968;-91
2021/04/05 02:00:14;;;;;;;11.23;7.50;;;3.20;44.20;;;;;;5062274;28;36178;-90
2021/04/05 02:02:42;;;;;;;10.73;6.97;;;3.20;44.20;;;;;;5060440;28;38638;-90
2021/04/05 02:05:10;;;;;;;11.73;8.17;;;3.20;44.20;;;;;;5071639;28;37757;-91
2021/04/05 02:07:39;;;;;;;13.00;8.10;;;3.20;44.30;;;;;;5080589;28;38134;-90
2021/04/05 02:10:09;;;;;;;12.90;7.80;;;3.20;44.20;;;;;;5062593;28;36888;-91
2021/04/05 02:12:38;;;;;;;9.10;6.83;;;3.20;44.30;;;;;;5057234;28;38680;-91
2021/04/05 02:15:09;;;;;;;10.43;7.20;;;3.20;44.30;;;;;;5064599;28;38839;-91
2021/04/05 02:17:37;;;;;;;7.97;6.30;;;3.10;44.20;;;;;;5053317;28;36660;-92
2021/04/05 02:20:07;;;;;;;11.07;6.93;;;3.10;44.20;;;;;;5073853;28;36270;-90
2021/04/05 02:22:37;;;;;;;7.80;5.20;;;3.10;44.00;;;;;;5074551;28;40348;-90
2021/04/05 02:25:06;;;;;;;8.00;5.77;;;3.00;44.00;;;;;;5055381;28;37748;-90
2021/04/05 02:27:34;;;;;;;8.87;5.23;;;3.00;44.10;;;;;;5055885;28;37594;-90
2021/04/05 02:30:02;;;;;;;9.00;5.80;;;3.00;44.20;;;;;;5056358;28;36243;-90
2021/04/05 02:32:31;;;;;;;7.93;6.40;;;3.00;44.20;;;;;;5057603;28;38626;-90
2021/04/05 02:34:58;;;;;;;7.73;5.90;;;2.90;44.10;;;;;;5062128;28;37884;-89
2021/04/05 02:37:25;;;;;;;7.00;6.17;;;2.90;44.10;;;;;;5074827;28;38553;-90
2021/04/05 02:39:53;;;;;;;12.80;6.80;;;2.90;44.20;;;;;;5064134;28;36413;-90
2021/04/05 02:42:20;;;;;;;9.03;6.47;;;2.80;44.10;;;;;;5053516;28;38453;-91
2021/04/05 02:44:48;;;;;;;8.87;6.10;;;2.80;44.30;;;;;;5066268;28;37847;-90
2021/04/05 02:47:16;;;;;;;11.17;7.17;;;2.70;44.20;;;;;;5057381;28;36475;-91
2021/04/05 02:49:45;;;;;;;8.60;6.77;;;2.80;44.30;;;;;;5093434;28;37255;-90
2021/04/05 02:52:12;;;;;;;10.80;6.93;;;2.80;44.10;;;;;;5074168;28;39503;-90
2021/04/05 02:54:39;;;;;;;8.23;6.30;;;2.70;44.20;;;;;;5090157;28;39388;-90
2021/04/05 02:57:07;;;;;;;9.70;6.57;;;2.70;44.40;;;;;;5072504;28;36789;-90
2021/04/05 02:59:35;;;;;;;7.00;6.30;;;2.70;44.50;;;;;;5062970;28;35621;-90
2021/04/05 03:02:02;;;;;;;10.27;6.90;;;2.70;44.50;;;;;;5070788;28;39860;-90
2021/04/05 03:04:32;;;;;;;8.17;6.47;;;2.70;45.20;;;;;;5081472;28;39275;-91
2021/04/05 03:06:59;;;;;;;12.40;6.50;;;2.70;45.20;;;;;;5057769;28;37209;-90
2021/04/05 03:09:26;;;;;;;8.90;7.00;;;2.70;44.70;;;;;;5076918;28;37295;-91
2021/04/05 03:11:57;;;;;;;12.63;6.80;;;2.70;44.70;;;;;;5057977;28;39689;-90
2021/04/05 03:14:25;;;;;;;7.97;6.00;;;2.70;44.60;;;;;;5061828;28;37800;-90
2021/04/05 03:16:53;;;;;;;8.87;6.90;;;2.70;44.90;;;;;;5057644;28;37179;-90
2021/04/05 03:19:23;;;;;;;6.93;6.20;;;2.80;44.80;;;;;;5056747;28;36146;-91
2021/04/05 03:21:52;;;;;;;10.87;6.83;;;2.70;44.80;;;;;;5057037;28;38257;-90
2021/04/05 03:24:19;;;;;;;10.97;6.27;;;2.70;44.90;;;;;;5074873;28;39891;-90
2021/04/05 03:26:47;;;;;;;7.20;5.90;;;2.70;44.90;;;;;;5073909;28;37924;-90
2021/04/05 03:29:17;;;;;;;9.87;6.87;;;2.70;45.00;;;;;;5061740;28;35618;-90
2021/04/05 03:31:46;;;;;;;10.30;7.40;;;2.70;45.20;;;;;;5054559;28;38670;-91
2021/04/05 03:34:19;;;;;;;16.67;8.60;;;2.70;45.40;;;;;;5081281;28;39832;-90
2021/04/05 03:36:49;;;;;;;16.27;8.37;;;2.70;45.40;;;;;;5073253;28;38148;-90
2021/04/05 03:39:20;;;;;;;12.07;8.40;;;2.70;45.00;;;;;;5055286;28;37155;-90
2021/04/05 03:41:55;;;;;;;14.00;8.80;;;2.80;45.00;;;;;;5053758;28;38235;-91
2021/04/05 03:44:31;;;;;;;12.83;9.20;;;2.70;45.00;;;;;;5054654;28;38589;-91
2021/04/05 03:47:05;;;;;;;11.73;7.20;;;2.70;45.30;;;;;;5055744;28;36979;-90
2021/04/05 03:49:37;;;;;;;13.90;7.80;;;2.60;45.30;;;;;;5067436;28;37803;-90
2021/04/05 03:52:10;;;;;;;11.63;7.13;;;2.60;45.10;;;;;;5055419;28;38245;-91
2021/04/05 03:54:45;;;;;;;9.10;7.27;;;2.60;45.30;;;;;;5055566;28;37834;-90
2021/04/05 03:57:16;;;;;;;10.60;6.40;;;2.60;45.40;;;;;;5059071;28;36964;-90
2021/04/05 03:59:47;;;;;;;12.70;6.83;;;2.60;45.50;;;;;;5057716;28;37190;-90
2021/04/05 04:02:17;;;;;;;9.93;6.80;;;2.60;45.70;;;;;;5071350;28;39800;-90
2021/04/05 04:04:54;;;;;;;6.97;6.17;;;2.60;45.70;;;;;;5054303;28;39412;-91
2021/04/05 04:07:27;;;;;;;8.37;6.77;;;2.50;45.90;;;;;;5052511;28;37188;-89
2021/04/05 04:09:57;;;;;;;8.83;5.93;;;2.50;45.80;;;;;;5055236;28;36896;-89
2021/04/05 04:12:25;;;;;;;7.00;6.30;;;2.50;46.00;;;;;;5073636;28;40882;-91
2021/04/05 04:14:55;;;;;;;9.30;6.07;;;2.50;45.90;;;;;;5063409;28;38013;-90
2021/04/05 04:17:24;;;;;;;8.67;6.17;;;2.50;46.00;;;;;;5074324;28;36893;-90
2021/04/05 04:19:53;;;;;;;9.93;6.20;;;2.60;46.00;;;;;;5088921;28;39431;-90
2021/04/05 04:22:22;;;;;;;10.43;6.63;;;2.60;46.10;;;;;;5069458;28;39265;-89
2021/04/05 04:24:49;;;;;;;8.50;5.53;;;2.50;46.10;;;;;;5070718;28;37834;-89
2021/04/05 04:27:17;;;;;;;8.03;5.97;;;2.50;46.20;;;;;;5075415;28;36421;-90
2021/04/05 04:29:52;;;;;;;8.60;6.20;;;2.50;46.20;;;;;;5059294;28;35887;-91
2021/04/05 04:32:19;;;;;;;7.93;6.60;;;2.50;46.10;;;;;;5063036;28;40004;-90
2021/04/05 04:34:46;;;;;;;6.93;6.03;;;2.50;46.10;;;;;;5082526;28;39261;-90
2021/04/05 04:37:14;;;;;;;10.07;6.07;;;2.50;46.10;;;;;;5067872;28;37209;-90
2021/04/05 04:39:41;;;;;;;9.50;6.90;;;2.50;46.00;;;;;;5071833;28;36141;-88
2021/04/05 04:42:09;;;;;;;8.30;6.07;;;2.50;46.00;;;;;;5070247;28;38446;-89
2021/04/05 04:44:37;;;;;;;9.13;7.23;;;2.60;46.10;;;;;;5102233;28;39564;-90
2021/04/05 04:47:07;;;;;;;7.53;5.60;;;2.60;46.00;;;;;;5065866;28;36826;-90
2021/04/05 04:49:34;;;;;;;9.70;6.00;;;2.60;45.80;;;;;;5098430;28;38533;-88
2021/04/05 04:52:01;;;;;;;9.93;6.53;;;2.60;45.80;;;;;;5098332;28;41154;-89
2021/04/05 04:54:29;;;;;;;8.87;5.77;;;2.60;46.00;;;;;;5106232;27;40331;-89
2021/04/05 04:56:56;;;;;;;8.40;5.90;;;2.60;46.20;;;;;;5080376;28;37580;-89
2021/04/05 04:59:24;;;;;;;10.93;5.60;;;2.60;46.20;;;;;;5080624;28;36917;-89
2021/04/05 05:01:53;;;;;;;7.30;5.67;;;2.70;46.20;;;;;;5082622;28;39534;-89
2021/04/05 05:04:24;;;;;;;7.17;6.43;;;2.60;46.20;;;;;;5074995;28;38861;-91
2021/04/05 05:06:56;;;;;;;11.30;5.77;;;2.70;46.30;;;;;;5060727;28;36966;-91
2021/04/05 05:09:24;;;;;;;9.80;5.63;;;2.70;46.10;;;;;;5055555;28;36170;-89
2021/04/05 05:11:52;;;;;;;8.23;6.67;;;2.80;46.10;;;;;;5054308;28;38702;-90
2021/04/05 05:14:20;;;;;;;8.80;6.83;;;2.90;45.90;;;;;;5051598;28;37654;-91
2021/04/05 05:16:48;;;;;;;7.70;5.80;;;3.00;45.60;;;;;;5053597;28;38213;-89
2021/04/05 05:19:16;;;;;;;9.33;6.43;;;3.10;45.50;;;;;;5053638;28;36747;-89
2021/04/05 05:21:46;;;;;;;8.40;6.00;;;3.20;45.50;;;;;;5057004;28;38248;-89
2021/04/05 05:24:16;;;;;;;9.20;5.73;;;3.40;45.10;;;;;;5063835;28;37937;-90
2021/04/05 05:26:44;;;;;;;7.90;6.00;;;3.50;44.60;;;;;;5060429;28;36659;-90
2021/04/05 05:29:13;;;;;;;6.93;5.80;;;3.60;44.20;;;;;;5076399;28;38012;-90
2021/04/05 05:31:42;;;;;;;7.20;5.10;;;3.70;43.80;;;;;;5058293;28;38625;-90
2021/04/05 05:34:10;;;;;;;10.27;5.93;;;3.80;43.70;;;;;;5075327;28;39029;-90
2021/04/05 05:36:38;;;;;;;8.00;5.20;;;3.80;43.50;;;;;;5075330;28;37972;-90
2021/04/05 05:39:06;;;;;;;8.53;5.40;;;3.90;43.50;;;;;;5075199;28;37835;-90
2021/04/05 05:41:51;;;;;;;8.00;5.37;;;4.00;43.50;;;;;;5056575;28;39666;-90
2021/04/05 05:44:24;;;;;;;8.43;6.00;;;4.10;43.40;;;;;;5062091;28;38161;-90
2021/04/05 05:46:57;;;;;;;7.20;4.90;;;4.30;43.20;;;;;;5056267;28;36695;-90
2021/04/05 05:49:35;;;;;;;9.33;4.80;;;4.60;42.80;;;;;;5051335;28;35766;-89
2021/04/05 05:52:12;;;;;;;6.03;4.93;;;4.70;42.70;;;;;;5053276;28;38885;-90
2021/04/05 05:55:03;;;;;;;6.67;4.90;;;4.90;42.40;;;;;;5078484;28;39943;-90
2021/04/05 05:57:38;;;;;;;6.30;4.60;;;5.20;41.80;;;;;;5057061;28;38186;-90
2021/04/05 06:00:08;;;;;;;7.30;4.60;;;5.30;41.70;;;;;;5074430;28;36818;-90
2021/04/05 06:02:53;;;;;;;4.73;3.90;;;5.50;41.60;;;;;;5065502;28;40051;-91
2021/04/05 06:05:26;;;;;;;8.03;4.30;;;5.70;41.00;;;;;;5053475;28;38082;-91
2021/04/05 06:08:11;;;;;;;5.70;3.90;;;6.00;40.80;;;;;;5055907;28;36555;-90
2021/04/05 06:10:49;;;;;;;9.20;3.70;;;6.30;40.20;;;;;;5041872;28;36070;-89
2021/04/05 06:13:27;;;;;;;7.53;3.70;;;6.60;39.70;;;;;;5076387;28;40495;-90
2021/04/05 06:16:09;;;;;;;5.60;3.10;;;7.00;38.70;;;;;;5054849;28;37900;-89
2021/04/05 06:18:49;;;;;;;5.07;2.83;;;7.40;37.50;;;;;;5044796;28;36537;-89
2021/04/05 06:21:27;;;;;;;6.53;3.13;;;7.90;36.30;;;;;;5052768;28;36329;-89
2021/04/05 06:24:01;;;;;;;3.20;2.90;;;8.60;35.30;;;;;;5070869;28;38810;-90
2021/04/05 06:26:47;;;;;;;7.17;3.20;;;9.20;33.30;;;;;;5055473;28;39092;-90
2021/04/05 06:29:25;;;;;;;2.93;2.63;;;9.70;32.50;;;;;;5054061;28;38040;-91
2021/04/05 06:32:16;;;;;;;4.77;2.97;;;10.10;30.60;;;;;;5069553;28;37820;-90
2021/04/05 06:35:10;;;;;;;4.30;2.90;;;10.20;30.00;;;;;;5047635;28;39645;-90
2021/04/05 06:37:43;;;;;;;5.80;2.80;;;10.30;30.10;;;;;;5075115;28;39011;-89
2021/04/05 06:40:16;;;;;;;3.30;2.73;;;10.60;29.70;;;;;;5055063;28;37793;-89
2021/04/05 06:43:05;;;;;;;3.47;2.43;;;10.70;29.30;;;;;;5055216;28;36971;-90
2021/04/05 06:46:02;;;;;;;6.37;2.80;;;11.00;28.40;;;;;;5073992;28;40598;-90
2021/04/05 06:48:44;;;;;;;4.53;2.67;;;11.30;28.30;;;;;;5009900;28;38813;-89
2021/04/05 06:51:28;;;;;;;7.30;2.83;;;12.20;27.20;;;;;;5039769;28;36550;-90
2021/04/05 06:54:27;;;;;;;4.17;2.73;;;12.70;27.00;;;;;;5047933;28;36269;-90
2021/04/05 06:57:07;;;;;;;3.37;2.70;;;13.10;26.10;;;;;;5075820;28;40377;-89
2021/04/05 06:59:46;;;;;;;3.20;2.70;;;13.00;26.10;;;;;;5048738;28;37824;-90
2021/04/05 07:02:42;;;;;;;4.23;2.87;;;12.80;26.30;;;;;;5072977;28;38416;-90
2021/04/05 07:05:20;;;;;;;4.00;2.67;;;12.50;26.50;;;;;;5027214;28;36290;-89
2021/04/05 07:08:00;;;;;;;5.37;2.70;;;12.10;27.40;;;;;;5048544;28;39502;-90
2021/04/05 07:10:32;;;;;;;8.40;2.70;;;11.70;27.30;;;;;;5068168;28;38938;-89
2021/04/05 07:13:04;;;;;;;6.70;2.80;;;11.50;27.70;;;;;;5068760;28;36890;-89
2021/04/05 07:15:42;;;;;;;4.40;2.53;;;11.10;28.10;;;;;;5053845;28;35898;-90
2021/04/05 07:18:22;;;;;;;5.37;3.40;;;10.90;28.00;;;;;;5056144;28;38338;-89
2021/04/05 07:21:04;;;;;;;4.43;2.90;;;10.80;28.40;;;;;;5055107;28;38125;-90
2021/04/05 07:23:50;;;;;;;6.40;3.23;;;10.90;28.50;;;;;;5071202;28;39636;-90
2021/04/05 07:26:24;;;;;;;3.37;2.87;;;11.00;28.50;;;;;;5054636;28;36218;-90
2021/04/05 07:29:11;;;;;;;3.30;2.67;;;11.10;28.50;;;;;;5075389;28;39675;-89
2021/04/05 07:31:55;;;;;;;8.83;3.07;;;11.40;28.40;;;;;;5071153;28;38939;-91
2021/04/05 07:34:42;;;;;;;3.77;2.57;;;11.50;27.80;;;;;;5075810;28;38374;-90
2021/04/05 07:37:21;;;;;;;7.70;2.80;;;11.50;27.70;;;;;;5054338;28;36273;-91
2021/04/05 07:39:58;;;;;;;5.40;3.00;;;11.70;27.70;;;;;;5052830;28;40506;-91
2021/04/05 07:42:34;;;;;;;4.40;2.90;;;11.80;27.60;;;;;;5055074;28;37886;-91
2021/04/05 07:45:08;;;;;;;3.23;2.17;;;12.20;27.50;;;;;;5052030;28;37126;-92
2021/04/05 07:47:42;;;;;;;9.17;3.30;;;12.70;26.90;;;;;;5071341;28;37442;-90
2021/04/05 07:50:19;;;;;;;4.10;2.70;;;13.40;26.40;;;;;;5067651;28;39687;-90
2021/04/05 07:52:55;;;;;;;7.73;2.83;;;14.40;25.20;;;;;;5070573;28;39931;-91
2021/04/05 07:55:23;;;;;;;4.23;3.00;;;15.30;24.40;;;;;;5070504;28;38601;-91
2021/04/05 07:58:04;;;;;;;5.87;2.93;;;16.50;23.50;;;;;;5053889;28;36132;-92
2021/04/05 08:00:47;;;;;;;5.07;2.87;;;17.80;22.40;;;;;;5057205;28;39098;-92
2021/04/05 08:03:30;;;;;;;3.93;2.77;;;18.80;21.30;;;;;;5073895;28;39174;-91
2021/04/05 08:06:00;;;;;;;5.20;2.90;;;19.30;21.00;;;;;;5049339;28;37705;-89
2021/04/05 08:08:52;;;;;;;3.90;2.87;;;20.20;20.40;;;;;;5050638;28;36747;-89
2021/04/05 08:11:28;;;;;;;3.43;2.80;;;21.40;19.60;;;;;;5061722;28;38440;-89
2021/04/05 08:14:08;;;;;;;6.80;3.10;;;22.30;18.50;;;;;;5046861;28;37875;-88
2021/04/05 08:16:46;;;;;;;8.70;3.70;;;22.50;18.10;;;;;;5050666;28;37167;-89
2021/04/05 08:19:21;;;;;;;4.27;3.00;;;22.30;18.10;;;;;;5067136;28;36020;-88
2021/04/05 08:21:56;;;;;;;7.17;2.80;;;22.50;18.30;;;;;;5055513;28;38305;-87
2021/04/05 08:24:32;;;;;;;6.37;3.07;;;22.80;17.70;;;;;;5053133;28;38734;-88
2021/04/05 08:27:14;;;;;;;19.00;3.73;;;23.30;17.80;;;;;;5067134;28;37744;-87
2021/04/05 08:29:47;;;;;;;9.43;3.57;;;23.80;16.80;;;;;;5051631;28;37291;-87
2021/04/05 08:32:29;;;;;;;10.83;4.00;;;24.00;16.90;;;;;;5070231;28;41030;-88
2021/04/05 08:35:18;;;;;;;11.83;3.60;;;24.10;16.50;;;;;;5052558;28;39082;-87
2021/04/05 08:37:56;;;;;;;7.20;3.17;;;24.10;16.60;;;;;;5067726;28;37127;-88
2021/04/05 08:40:29;;;;;;;10.40;3.50;;;23.90;16.30;;;;;;5072353;28;36568;-89
2021/04/05 08:43:06;;;;;;;5.43;2.90;;;23.90;16.40;;;;;;5070443;28;39622;-89
2021/04/05 08:45:40;;;;;;;6.23;3.10;;;24.50;16.50;;;;;;5051740;28;37993;-89
2021/04/05 08:48:12;;;;;;;10.90;3.67;;;25.40;15.70;;;;;;5071512;28;37923;-89
2021/04/05 08:50:42;;;;;;;11.70;3.30;;;25.80;15.50;;;;;;5058821;28;36840;-88
2021/04/05 08:53:12;;;;;;;25.03;4.20;;;25.70;15.50;;;;;;5056551;28;38465;-89
2021/04/05 08:55:41;;;;;;;5.53;3.00;;;25.70;15.50;;;;;;5055869;28;40149;-88
2021/04/05 08:58:11;;;;;;;4.50;2.73;;;25.30;15.50;;;;;;5075955;28;36920;-88
2021/04/05 09:00:43;;;;;;;4.83;3.10;;;24.90;15.70;;;;;;5064284;28;37027;-88
2021/04/05 09:03:14;;;;;;;5.40;3.07;;;24.40;15.80;;;;;;5078254;28;39740;-88
2021/04/05 09:05:43;;;;;;;4.90;2.87;;;23.50;16.00;;;;;;5062191;28;37722;-88
2021/04/05 09:08:12;;;;;;;3.60;2.67;;;22.60;16.70;;;;;;5068105;28;37381;-89
2021/04/05 09:10:48;;;;;;;4.40;2.77;;;22.30;16.80;;;;;;5080082;28;36791;-88
2021/04/05 09:13:20;;;;;;;5.10;3.17;;;21.80;17.20;;;;;;5072010;28;38399;-89
2021/04/05 09:16:29;;;;;;;3.23;2.27;;;21.50;17.50;;;;;;5083578;28;38630;-89
2021/04/05 09:19:20;;;;;;;3.60;2.73;;;21.30;17.60;;;;;;5097652;28;38385;-88
2021/04/05 09:22:06;;;;;;;5.97;3.40;;;21.00;18.00;;;;;;5092521;28;35837;-88
2021/04/05 09:25:00;;;;;;;11.20;3.17;;;20.10;18.10;;;;;;5069599;28;39657;-88
2021/04/05 09:27:50;;;;;;;5.50;2.83;;;19.50;18.50;;;;;;5071493;28;39045;-88
2021/04/05 09:30:50;;;;;;;4.10;2.20;;;19.40;19.10;;;;;;5059321;28;38023;-88
2021/04/05 09:33:57;;;;;;;8.83;2.50;;;20.10;18.60;;;;;;5044063;28;36305;-89
2021/04/05 09:37:02;;;;;;;5.40;2.53;;;20.90;17.90;;;;;;5070658;28;39626;-88
2021/04/05 09:40:04;;;;;;;4.50;2.50;;;21.00;18.00;;;;;;5049137;28;38206;-88
2021/04/05 09:43:08;;;;;;;3.80;2.27;;;21.50;17.90;;;;;;5051324;28;38123;-89
2021/04/05 09:45:43;;;;;;;7.33;2.70;;;21.70;17.50;;;;;;5071241;28;37818;-89
2021/04/05 09:48:37;;;;;;;4.60;2.87;;;21.50;17.30;;;;;;5065573;28;38556;-88
2021/04/05 09:51:21;;;;;;;8.47;2.80;;;21.10;17.40;;;;;;5084831;28;39206;-88
2021/04/05 09:53:59;;;;;;;9.27;3.23;;;20.50;17.20;;;;;;5074124;28;36944;-89
2021/04/05 09:56:32;;;;;;;3.70;2.00;;;20.20;17.00;;;;;;5081860;28;37429;-89
2021/04/05 09:59:05;;;;;;;7.33;2.37;;;19.60;17.60;;;;;;5062400;28;39072;-89
2021/04/05 10:01:33;;;;;;;10.03;2.40;;;18.80;17.30;;;;;;5059878;28;38173;-89
2021/04/05 10:04:03;;;;;;;22.17;4.23;;;18.40;17.30;;;;;;5088921;28;38213;-86
2021/04/05 10:06:33;;;;;;;4.17;2.63;;;17.90;18.00;;;;;;5063981;28;36529;-89
2021/04/05 10:09:05;;;;;;;8.60;2.43;;;17.60;18.50;;;;;;5082909;28;40170;-89
2021/04/05 10:11:36;;;;;;;11.00;3.90;;;17.30;19.40;;;;;;5059471;28;38465;-86
2021/04/05 10:14:10;;;;;;;7.43;2.67;;;16.90;19.70;;;;;;5071995;28;37954;-84
2021/04/05 10:16:39;;;;;;;8.53;2.73;;;16.70;20.10;;;;;;5076886;28;36865;-85
2021/04/05 10:19:09;;;;;;;9.43;3.60;;;16.60;20.00;;;;;;5066721;28;38253;-87
2021/04/05 10:21:41;;;;;;;6.00;3.30;;;16.40;20.20;;;;;;5069625;28;37939;-88
2021/04/05 10:24:11;;;;;;;8.17;2.83;;;16.30;20.60;;;;;;5080314;28;37978;-89
2021/04/05 10:26:41;;;;;;;17.20;3.53;;;16.30;20.70;;;;;;5079672;28;38009;-89
2021/04/05 10:29:11;;;;;;;7.47;2.60;;;16.00;21.00;;;;;;5083320;28;39257;-88
2021/04/05 10:31:39;;;;;;;10.23;3.40;;;15.90;21.20;;;;;;5056123;28;39238;-88
2021/04/05 10:34:08;;;;;;;7.83;2.93;;;15.70;21.30;;;;;;5067774;28;37989;-89
2021/04/05 10:36:39;;;;;;;5.27;2.60;;;15.80;21.20;;;;;;5075505;28;37194;-87
2021/04/05 10:39:10;;;;;;;15.83;3.77;;;15.60;21.60;;;;;;5090374;28;38750;-88
2021/04/05 10:41:48;;;;;;;8.47;2.77;;;15.50;21.90;;;;;;5093041;28;40683;-87
2021/04/05 10:44:18;;;;;;;6.67;3.13;;;15.50;22.50;;;;;;5088766;28;38039;-88
2021/04/05 10:46:53;;;;;;;11.43;3.20;;;15.50;22.10;;;;;;5098743;28;38225;-86
2021/04/05 10:49:26;;;;;;;15.27;3.63;;;15.50;21.80;;;;;;5086622;28;41081;-85
2021/04/05 10:51:58;;;;;;;51.17;6.43;;;15.30;22.10;;;;;;5091071;28;39518;-87
2021/04/05 10:54:33;;;;;;;11.00;2.90;;;15.00;21.90;;;;;;5095691;28;39463;-87
2021/04/05 10:57:04;;;;;;;10.30;3.50;;;15.10;22.20;;;;;;5088580;28;38197;-86
2021/04/05 10:59:42;;;;;;;5.80;2.90;;;15.30;22.20;;;;;;5066462;28;38431;-86
2021/04/05 11:02:15;;;;;;;13.93;4.57;;;15.30;22.20;;;;;;5063676;28;37402;-88
2021/04/05 11:04:47;;;;;;;6.63;2.73;;;15.40;22.40;;;;;;5019124;28;36788;-87
2021/04/05 11:07:15;;;;;;;6.13;3.03;;;15.70;22.50;;;;;;5012304;28;37356;-88
2021/04/05 11:09:44;;;;;;;9.20;3.87;;;15.90;22.30;;;;;;4999168;28;38555;-88
2021/04/05 11:12:12;;;;;;;8.50;3.13;;;16.00;22.00;;;;;;4992169;28;37733;-87
2021/04/05 11:14:43;;;;;;;6.63;3.53;;;16.10;22.00;;;;;;5007989;28;38135;-87
2021/04/05 11:17:11;;;;;;;5.00;3.27;;;16.00;22.00;;;;;;5015796;28;37301;-86
2021/04/05 11:19:49;;;;;;;10.43;3.60;;;16.00;22.20;;;;;;4982063;28;39398;-86
2021/04/05 11:22:18;;;;;;;7.13;3.10;;;15.80;22.30;;;;;;5002430;28;39680;-85
2021/04/05 11:24:54;;;;;;;6.47;3.67;;;15.70;22.60;;;;;;4992506;28;36845;-87
2021/04/05 11:27:25;;;;;;;4.87;2.60;;;15.50;22.40;;;;;;4991495;28;36149;-87
2021/04/05 11:29:56;;;;;;;7.00;3.80;;;15.30;22.70;;;;;;5008051;28;39644;-86
2021/04/05 11:32:27;;;;;;;6.50;2.53;;;15.10;22.50;;;;;;5005044;28;38640;-86
2021/04/05 11:34:57;;;;;;;4.43;2.70;;;15.00;22.60;;;;;;4987950;28;36043;-86
2021/04/05 11:37:30;;;;;;;4.77;3.00;;;15.20;23.10;;;;;;4986820;28;36227;-86
2021/04/05 11:40:04;;;;;;;6.80;3.20;;;15.10;22.80;;;;;;4986534;28;39654;-85
2021/04/05 11:42:34;;;;;;;7.57;3.83;;;15.00;22.90;;;;;;5027505;28;38134;-90
2021/04/05 11:45:02;;;;;;;6.73;2.80;;;15.00;22.80;;;;;;5053094;28;36495;-89
2021/04/05 11:47:36;;;;;;;5.43;3.20;;;14.70;22.50;;;;;;5073842;28;36928;-90
2021/04/05 11:50:12;;;;;;;5.63;3.43;;;14.50;22.90;;;;;;5050819;28;38329;-90
2021/04/05 11:52:50;;;;;;;5.83;2.93;;;14.40;22.80;;;;;;5066025;28;38473;-89
2021/04/05 11:55:26;;;;;;;7.30;3.03;;;14.40;22.80;;;;;;5044477;28;36858;-90
2021/04/05 11:58:00;;;;;;;4.60;2.73;;;14.40;23.00;;;;;;5052050;28;37637;-89
2021/04/05 12:00:32;;;;;;;7.17;2.80;;;14.30;22.80;;;;;;5072849;28;40792;-89
2021/04/05 12:03:14;;;;;;;3.70;2.77;;;14.20;22.90;;;;;;5053598;28;37723;-89
2021/04/05 12:05:45;;;;;;;6.23;2.70;;;14.40;22.80;;;;;;5062467;28;37070;-88
2021/04/05 12:08:19;;;;;;;7.43;2.50;;;14.60;22.80;;;;;;5054821;28;36100;-88
2021/04/05 12:10:53;;;;;;;6.13;3.77;;;14.80;22.40;;;;;;5073528;28;39617;-89
2021/04/05 12:13:28;;;;;;;5.20;2.60;;;15.00;22.20;;;;;;5051819;28;38171;-89
2021/04/05 12:15:58;;;;;;;6.93;2.80;;;15.00;22.10;;;;;;5077507;28;37630;-89
2021/04/05 12:18:26;;;;;;;4.40;2.27;;;15.30;21.00;;;;;;5086600;28;36306;-89
2021/04/05 12:21:05;;;;;;;6.23;2.40;;;15.40;20.40;;;;;;5081551;28;40478;-89
2021/04/05 12:23:33;;;;;;;12.40;3.27;;;15.70;19.80;;;;;;5080080;28;39044;-89
2021/04/05 12:26:02;;;;;;;4.10;2.93;;;15.80;19.40;;;;;;5066518;28;36887;-89
2021/04/05 12:28:35;;;;;;;8.80;4.50;;;15.80;19.10;;;;;;5076558;28;37990;-89
2021/04/05 12:31:03;;;;;;;6.67;3.13;;;15.90;19.00;;;;;;5073263;28;38914;-88
2021/04/05 12:33:33;;;;;;;6.53;3.67;;;16.00;19.00;;;;;;5054339;28;39026;-87
2021/04/05 12:36:04;;;;;;;4.50;2.60;;;16.10;18.90;;;;;;5059543;28;37057;-87
2021/04/05 12:38:35;;;;;;;6.50;2.80;;;16.30;19.00;;;;;;5077735;28;37144;-87
2021/04/05 12:41:05;;;;;;;10.57;2.90;;;16.40;19.10;;;;;;5074425;28;38532;-86
2021/04/05 12:43:34;;;;;;;11.03;3.77;;;16.30;18.90;;;;;;5096331;28;39761;-86
2021/04/05 12:46:08;;;;;;;7.30;3.67;;;16.10;19.30;;;;;;5084449;28;37525;-88
2021/04/05 12:48:37;;;;;;;6.37;3.33;;;15.80;19.50;;;;;;5110267;28;38438;-86
2021/04/05 12:51:08;;;;;;;5.57;3.10;;;15.60;19.80;;;;;;5076264;28;38926;-86
2021/04/05 12:53:42;;;;;;;4.90;3.40;;;15.40;20.30;;;;;;5101988;28;40422;-86
2021/04/05 12:56:18;;;;;;;9.03;3.07;;;15.20;20.80;;;;;;5097938;28;39516;-86
2021/04/05 12:58:53;;;;;;;7.90;4.70;;;15.10;21.30;;;;;;5098525;28;38584;-87
2021/04/05 13:01:31;;;;;;;6.13;4.13;;;15.00;21.50;;;;;;5066295;28;39388;-86
2021/04/05 13:04:01;;;;;;;8.23;4.47;;;14.90;21.90;;;;;;5083541;28;39298;-85
2021/04/05 13:06:40;;;;;;;6.30;3.87;;;14.70;22.10;;;;;;5092476;28;37789;-87
2021/04/05 13:09:13;;;;;;;5.53;3.40;;;14.50;22.40;;;;;;5082917;28;37156;-87
2021/04/05 13:11:46;;;;;;;6.33;3.50;;;14.20;21.90;;;;;;5061080;28;41038;-87
2021/04/05 13:14:20;;;;;;;6.37;3.73;;;13.90;22.60;;;;;;5065818;28;39481;-88
2021/04/05 13:16:55;;;;;;;8.97;4.03;;;13.80;22.70;;;;;;5078072;28;38459;-86
2021/04/05 13:19:29;;;;;;;9.17;4.20;;;13.70;22.80;;;;;;5070809;28;37366;-86
2021/04/05 13:21:59;;;;;;;13.80;4.50;;;13.60;23.10;;;;;;5059963;28;39157;-86